Urbana, IL

12:07 PM CDT on August 30, 2014 (GMT -0500)
METCAD 9-1-1: East Urbana - Champaign County, Illinois | Change Station
CLOSE
Current Station
Personal Weather Station
Location: Urbana, IL
Elevation: 732 ft
Nearby Weather Stations

Elev 732 ft 40.11 °N, 88.18 °W | Updated 40 seconds ago

Mostly Cloudy
Mostly Cloudy
80.9 °F
Feels Like 85 °F
N
11.0
Wind Variable Wind from SW
Gusts 17.0 mph

Today
High -- | Low -- °F
--% Chance of Precip.
Yesterday
High -- | Low -- °F
Precip. -- in
6:18 AM 7:27 PM
Waxing Crescent, 23% visible
Pressure 29.94 in
Visibility 10.0 miles
Clouds Few 2100 ft
Heat Index 85 °F
Dew Point 72 °F
Humidity 74%
Rainfall 0.02 in
Snow Depth Not available.
UV 8 out of 12
Pollen 8.60 out of 12
Air Quality Not available.
Flu Activity Not available.
METAR KCMI 301653Z 19014KT 10SM FEW021 27/22 A2996 RMK AO2 SLP139 T02670222

More Conditions Fewer Conditions

Pressure 29.94 in
Visibility 10.0 miles
Clouds Few 2100 ft
Heat Index 85 °F
Dew Point 72 °F
Humidity 74%
Rainfall 0.02 in
Snow Depth Not available.
UV 8 out of 12
Pollen 8.60 out of 12
Air Quality Not available.
Flu Activity Not available.
METAR KCMI 301653Z 19014KT 10SM FEW021 27/22 A2996 RMK AO2 SLP139 T02670222

More Conditions Fewer Conditions

10-Day Weather Forecast

Almanac

Astronomy

Aug. 30, 2014 Rise Set
Actual Time 6:18 AM CDT 7:27 PM CDT
Civil Twilight 5:50 AM CDT 7:55 PM CDT
Nautical Twilight 5:17 AM CDT 8:28 PM CDT
Astronomical Twilight 4:42 AM CDT 9:03 PM CDT
Moon 11:06 AM CDT 10:01 PM CDT
Length of Visible Light 14h 04m
Length of Day
13h 08m
Tomorrow will be 2m 32s shorter.
Waxing Crescent, 23% of the Moon is Illuminated
Today
Waxing Crescent
Sep 2
First Quarter
Sep 8
Full
Sep 15
Last Quarter
Sep 24
New

Today's Extremes

State Highs State Lows

Community

WunderPhotos

Upload Photos

1,748,566 photos uploaded!

WunderBlogs® & News

Nearby

Snow Depth

Station Depth Elevation
No new snow has been reported.

Earthquake Activity

City Distance Mag. Time & Date
No recent earthquake activity has been reported nearby.
Minimum magnitude displayed is 2.5.

Coastal Water Temperatures

Place Temperature
No Stations Reporting

Nearby Weather Stations